sensor_id;sensor_type;location;lat;lon;timestamp;temperature;humidity
78455;SHT31;67751;51.986;5.696;2023-05-29T00:01:54;15.2;59.4
78455;SHT31;67751;51.986;5.696;2023-05-29T00:04:24;15.1;59.2
78455;SHT31;67751;51.986;5.696;2023-05-29T00:06:54;15.1;60.0
78455;SHT31;67751;51.986;5.696;2023-05-29T00:09:24;15.1;60.5
78455;SHT31;67751;51.986;5.696;2023-05-29T00:11:54;15.0;60.3
78455;SHT31;67751;51.986;5.696;2023-05-29T00:14:23;15.0;60.7
78455;SHT31;67751;51.986;5.696;2023-05-29T00:16:53;15.0;60.7
78455;SHT31;67751;51.986;5.696;2023-05-29T00:19:24;15.0;60.0
78455;SHT31;67751;51.986;5.696;2023-05-29T00:21:54;14.9;60.0
78455;SHT31;67751;51.986;5.696;2023-05-29T00:24:24;14.9;61.2
78455;SHT31;67751;51.986;5.696;2023-05-29T00:26:53;14.9;60.1
78455;SHT31;67751;51.986;5.696;2023-05-29T00:29:23;14.9;60.5
78455;SHT31;67751;51.986;5.696;2023-05-29T00:31:53;14.8;60.9
78455;SHT31;67751;51.986;5.696;2023-05-29T00:34:23;14.8;60.9
78455;SHT31;67751;51.986;5.696;2023-05-29T00:36:53;14.7;61.6
78455;SHT31;67751;51.986;5.696;2023-05-29T00:39:24;14.7;61.3
78455;SHT31;67751;51.986;5.696;2023-05-29T00:41:53;14.7;61.1
78455;SHT31;67751;51.986;5.696;2023-05-29T00:44:23;14.7;61.5
78455;SHT31;67751;51.986;5.696;2023-05-29T00:46:53;14.6;60.8
78455;SHT31;67751;51.986;5.696;2023-05-29T00:49:23;14.6;61.6
78455;SHT31;67751;51.986;5.696;2023-05-29T00:51:54;14.6;61.7
78455;SHT31;67751;51.986;5.696;2023-05-29T00:54:27;14.6;60.9
78455;SHT31;67751;51.986;5.696;2023-05-29T00:56:58;14.5;61.3
78455;SHT31;67751;51.986;5.696;2023-05-29T00:59:31;14.5;60.9
78455;SHT31;67751;51.986;5.696;2023-05-29T01:02:02;14.5;61.3
78455;SHT31;67751;51.986;5.696;2023-05-29T01:04:32;14.5;60.4
78455;SHT31;67751;51.986;5.696;2023-05-29T01:07:03;14.5;60.2
78455;SHT31;67751;51.986;5.696;2023-05-29T01:09:34;14.4;60.7
78455;SHT31;67751;51.986;5.696;2023-05-29T01:12:23;14.4;60.6
78455;SHT31;67751;51.986;5.696;2023-05-29T01:15:04;14.4;60.5
78455;SHT31;67751;51.986;5.696;2023-05-29T01:17:43;14.4;60.3
78455;SHT31;67751;51.986;5.696;2023-05-29T01:20:31;14.4;60.4
78455;SHT31;67751;51.986;5.696;2023-05-29T01:23:28;14.4;60.4
78455;SHT31;67751;51.986;5.696;2023-05-29T01:26:11;14.4;61.0
78455;SHT31;67751;51.986;5.696;2023-05-29T01:28:46;14.4;60.5
78455;SHT31;67751;51.986;5.696;2023-05-29T01:31:20;14.4;59.7
78455;SHT31;67751;51.986;5.696;2023-05-29T01:33:56;14.3;60.4
78455;SHT31;67751;51.986;5.696;2023-05-29T01:36:27;14.3;60.6
78455;SHT31;67751;51.986;5.696;2023-05-29T01:38:58;14.3;60.2
78455;SHT31;67751;51.986;5.696;2023-05-29T01:41:29;14.3;60.4
78455;SHT31;67751;51.986;5.696;2023-05-29T01:44:04;14.2;60.8
78455;SHT31;67751;51.986;5.696;2023-05-29T01:46:37;14.2;60.8
78455;SHT31;67751;51.986;5.696;2023-05-29T01:49:08;14.2;60.5
78455;SHT31;67751;51.986;5.696;2023-05-29T01:51:39;14.2;60.3
78455;SHT31;67751;51.986;5.696;2023-05-29T01:54:09;14.2;60.1
78455;SHT31;67751;51.986;5.696;2023-05-29T01:56:39;14.1;60.9
78455;SHT31;67751;51.986;5.696;2023-05-29T01:59:10;14.1;61.0
78455;SHT31;67751;51.986;5.696;2023-05-29T02:01:41;14.1;61.2
78455;SHT31;67751;51.986;5.696;2023-05-29T02:04:11;14.1;60.8
78455;SHT31;67751;51.986;5.696;2023-05-29T02:06:40;14.1;60.6
78455;SHT31;67751;51.986;5.696;2023-05-29T02:09:10;14.1;60.6
78455;SHT31;67751;51.986;5.696;2023-05-29T02:11:40;14.1;60.5
78455;SHT31;67751;51.986;5.696;2023-05-29T02:14:13;14.0;60.7
78455;SHT31;67751;51.986;5.696;2023-05-29T02:16:42;14.0;60.7
78455;SHT31;67751;51.986;5.696;2023-05-29T02:19:13;14.0;61.1
78455;SHT31;67751;51.986;5.696;2023-05-29T02:21:43;14.0;61.5
78455;SHT31;67751;51.986;5.696;2023-05-29T02:24:14;13.9;61.2
78455;SHT31;67751;51.986;5.696;2023-05-29T02:26:47;13.9;61.1
78455;SHT31;67751;51.986;5.696;2023-05-29T02:29:17;13.9;61.4
78455;SHT31;67751;51.986;5.696;2023-05-29T02:31:47;13.9;61.5
78455;SHT31;67751;51.986;5.696;2023-05-29T02:34:16;13.8;62.0
78455;SHT31;67751;51.986;5.696;2023-05-29T02:36:46;13.8;62.1
78455;SHT31;67751;51.986;5.696;2023-05-29T02:39:15;13.7;61.9
78455;SHT31;67751;51.986;5.696;2023-05-29T02:41:45;13.7;61.9
78455;SHT31;67751;51.986;5.696;2023-05-29T02:44:15;13.7;62.0
78455;SHT31;67751;51.986;5.696;2023-05-29T02:46:44;13.7;62.0
78455;SHT31;67751;51.986;5.696;2023-05-29T02:49:14;13.6;62.1
78455;SHT31;67751;51.986;5.696;2023-05-29T02:51:43;13.6;62.2
78455;SHT31;67751;51.986;5.696;2023-05-29T02:54:13;13.6;61.9
78455;SHT31;67751;51.986;5.696;2023-05-29T02:56:42;13.6;61.8
78455;SHT31;67751;51.986;5.696;2023-05-29T02:59:12;13.5;62.2
78455;SHT31;67751;51.986;5.696;2023-05-29T03:01:42;13.5;62.1
78455;SHT31;67751;51.986;5.696;2023-05-29T03:04:13;13.5;62.2
78455;SHT31;67751;51.986;5.696;2023-05-29T03:06:42;13.5;61.8
78455;SHT31;67751;51.986;5.696;2023-05-29T03:09:12;13.5;62.6
78455;SHT31;67751;51.986;5.696;2023-05-29T03:11:43;13.5;62.7
78455;SHT31;67751;51.986;5.696;2023-05-29T03:14:15;13.5;62.3
78455;SHT31;67751;51.986;5.696;2023-05-29T03:16:46;13.4;62.2
78455;SHT31;67751;51.986;5.696;2023-05-29T03:19:16;13.4;62.3
78455;SHT31;67751;51.986;5.696;2023-05-29T03:21:46;13.4;62.3
78455;SHT31;67751;51.986;5.696;2023-05-29T03:24:15;13.4;62.3
78455;SHT31;67751;51.986;5.696;2023-05-29T03:26:45;13.3;62.2
78455;SHT31;67751;51.986;5.696;2023-05-29T03:29:15;13.3;62.7
78455;SHT31;67751;51.986;5.696;2023-05-29T03:31:45;13.3;62.2
78455;SHT31;67751;51.986;5.696;2023-05-29T03:34:15;13.2;62.5
78455;SHT31;67751;51.986;5.696;2023-05-29T03:36:44;13.2;62.5
78455;SHT31;67751;51.986;5.696;2023-05-29T03:39:14;13.2;62.5
78455;SHT31;67751;51.986;5.696;2023-05-29T03:41:45;13.2;62.5
78455;SHT31;67751;51.986;5.696;2023-05-29T03:44:17;13.1;62.9
78455;SHT31;67751;51.986;5.696;2023-05-29T03:46:48;13.1;62.2
78455;SHT31;67751;51.986;5.696;2023-05-29T03:49:18;13.1;63.0
78455;SHT31;67751;51.986;5.696;2023-05-29T03:51:48;13.1;63.2
78455;SHT31;67751;51.986;5.696;2023-05-29T03:54:18;13.0;63.0
78455;SHT31;67751;51.986;5.696;2023-05-29T03:56:48;13.0;62.7
78455;SHT31;67751;51.986;5.696;2023-05-29T03:59:17;13.0;63.1
78455;SHT31;67751;51.986;5.696;2023-05-29T04:01:47;13.0;62.7
78455;SHT31;67751;51.986;5.696;2023-05-29T04:04:17;13.0;62.6
78455;SHT31;67751;51.986;5.696;2023-05-29T04:06:46;12.9;63.4
78455;SHT31;67751;51.986;5.696;2023-05-29T04:09:16;12.9;62.6
78455;SHT31;67751;51.986;5.696;2023-05-29T04:11:45;12.9;62.3
78455;SHT31;67751;51.986;5.696;2023-05-29T04:14:15;12.9;62.8
78455;SHT31;67751;51.986;5.696;2023-05-29T04:16:44;12.9;62.5
78455;SHT31;67751;51.986;5.696;2023-05-29T04:19:14;12.9;62.9
78455;SHT31;67751;51.986;5.696;2023-05-29T04:21:44;12.9;63.3
78455;SHT31;67751;51.986;5.696;2023-05-29T04:24:15;12.9;63.0
78455;SHT31;67751;51.986;5.696;2023-05-29T04:26:46;12.9;63.3
78455;SHT31;67751;51.986;5.696;2023-05-29T04:29:16;12.9;63.3
78455;SHT31;67751;51.986;5.696;2023-05-29T04:31:45;12.9;63.2
78455;SHT31;67751;51.986;5.696;2023-05-29T04:34:17;12.9;62.6
78455;SHT31;67751;51.986;5.696;2023-05-29T04:36:48;12.9;63.7
78455;SHT31;67751;51.986;5.696;2023-05-29T04:39:19;12.9;63.4
78455;SHT31;67751;51.986;5.696;2023-05-29T04:41:51;12.9;63.7
78455;SHT31;67751;51.986;5.696;2023-05-29T04:44:23;12.9;63.5
78455;SHT31;67751;51.986;5.696;2023-05-29T04:46:53;12.9;63.1
78455;SHT31;67751;51.986;5.696;2023-05-29T04:49:24;12.9;62.7
78455;SHT31;67751;51.986;5.696;2023-05-29T04:51:53;12.9;63.3
78455;SHT31;67751;51.986;5.696;2023-05-29T04:54:23;12.9;63.0
78455;SHT31;67751;51.986;5.696;2023-05-29T04:56:52;12.9;62.3
78455;SHT31;67751;51.986;5.696;2023-05-29T04:59:22;12.9;63.3
78455;SHT31;67751;51.986;5.696;2023-05-29T05:01:52;12.9;63.4
78455;SHT31;67751;51.986;5.696;2023-05-29T05:04:21;12.9;63.3
78455;SHT31;67751;51.986;5.696;2023-05-29T05:06:53;12.9;63.5
78455;SHT31;67751;51.986;5.696;2023-05-29T05:09:22;12.9;62.3
78455;SHT31;67751;51.986;5.696;2023-05-29T05:11:52;12.9;63.0
78455;SHT31;67751;51.986;5.696;2023-05-29T05:14:24;12.9;62.6
78455;SHT31;67751;51.986;5.696;2023-05-29T05:16:54;12.8;63.1
78455;SHT31;67751;51.986;5.696;2023-05-29T05:19:23;12.8;63.1
78455;SHT31;67751;51.986;5.696;2023-05-29T05:21:53;12.8;63.0
78455;SHT31;67751;51.986;5.696;2023-05-29T05:24:22;12.8;62.4
78455;SHT31;67751;51.986;5.696;2023-05-29T05:26:52;12.8;63.1
78455;SHT31;67751;51.986;5.696;2023-05-29T05:29:21;12.8;63.1
78455;SHT31;67751;51.986;5.696;2023-05-29T05:31:51;12.8;62.6
78455;SHT31;67751;51.986;5.696;2023-05-29T05:34:21;12.8;62.1
78455;SHT31;67751;51.986;5.696;2023-05-29T05:36:50;12.8;62.5
78455;SHT31;67751;51.986;5.696;2023-05-29T05:39:20;12.8;62.6
78455;SHT31;67751;51.986;5.696;2023-05-29T05:41:52;12.8;63.1
78455;SHT31;67751;51.986;5.696;2023-05-29T05:44:21;12.9;62.9
78455;SHT31;67751;51.986;5.696;2023-05-29T05:46:51;12.9;63.4
78455;SHT31;67751;51.986;5.696;2023-05-29T05:49:22;12.9;62.2
78455;SHT31;67751;51.986;5.696;2023-05-29T05:51:51;12.9;62.2
78455;SHT31;67751;51.986;5.696;2023-05-29T05:54:21;13.0;62.2
78455;SHT31;67751;51.986;5.696;2023-05-29T05:56:52;13.0;62.0
78455;SHT31;67751;51.986;5.696;2023-05-29T05:59:22;13.0;61.9
78455;SHT31;67751;51.986;5.696;2023-05-29T06:01:51;13.0;62.2
78455;SHT31;67751;51.986;5.696;2023-05-29T06:04:21;13.0;61.0
78455;SHT31;67751;51.986;5.696;2023-05-29T06:06:52;13.1;60.5
78455;SHT31;67751;51.986;5.696;2023-05-29T06:09:22;13.1;59.3
78455;SHT31;67751;51.986;5.696;2023-05-29T06:11:52;13.1;60.1
78455;SHT31;67751;51.986;5.696;2023-05-29T06:14:23;13.1;60.1
78455;SHT31;67751;51.986;5.696;2023-05-29T06:16:53;13.1;59.1
78455;SHT31;67751;51.986;5.696;2023-05-29T06:19:23;13.1;59.3
78455;SHT31;67751;51.986;5.696;2023-05-29T06:21:53;13.1;59.5
78455;SHT31;67751;51.986;5.696;2023-05-29T06:24:23;13.1;59.1
78455;SHT31;67751;51.986;5.696;2023-05-29T06:26:53;13.2;58.8
78455;SHT31;67751;51.986;5.696;2023-05-29T06:29:22;13.2;58.3
78455;SHT31;67751;51.986;5.696;2023-05-29T06:31:52;13.2;59.0
78455;SHT31;67751;51.986;5.696;2023-05-29T06:34:21;13.2;59.4
78455;SHT31;67751;51.986;5.696;2023-05-29T06:36:51;13.3;60.0
78455;SHT31;67751;51.986;5.696;2023-05-29T06:39:21;13.3;59.8
78455;SHT31;67751;51.986;5.696;2023-05-29T06:41:51;13.4;58.4
78455;SHT31;67751;51.986;5.696;2023-05-29T06:44:21;13.4;58.4
78455;SHT31;67751;51.986;5.696;2023-05-29T06:46:50;13.4;58.3
78455;SHT31;67751;51.986;5.696;2023-05-29T06:49:20;13.5;58.8
78455;SHT31;67751;51.986;5.696;2023-05-29T06:51:49;13.5;59.6
78455;SHT31;67751;51.986;5.696;2023-05-29T06:54:19;13.5;57.9
78455;SHT31;67751;51.986;5.696;2023-05-29T06:56:49;13.6;57.2
78455;SHT31;67751;51.986;5.696;2023-05-29T06:59:19;13.6;56.8
78455;SHT31;67751;51.986;5.696;2023-05-29T07:01:49;13.7;56.4
78455;SHT31;67751;51.986;5.696;2023-05-29T07:04:19;13.7;56.9
78455;SHT31;67751;51.986;5.696;2023-05-29T07:06:49;13.8;57.1
78455;SHT31;67751;51.986;5.696;2023-05-29T07:09:18;13.8;57.5
78455;SHT31;67751;51.986;5.696;2023-05-29T07:11:50;13.9;57.2
78455;SHT31;67751;51.986;5.696;2023-05-29T07:14:19;13.9;56.2
78455;SHT31;67751;51.986;5.696;2023-05-29T07:16:49;14.0;56.7
78455;SHT31;67751;51.986;5.696;2023-05-29T07:19:18;14.0;56.5
78455;SHT31;67751;51.986;5.696;2023-05-29T07:21:48;14.1;54.8
78455;SHT31;67751;51.986;5.696;2023-05-29T07:24:18;14.1;56.8
78455;SHT31;67751;51.986;5.696;2023-05-29T07:26:47;14.2;55.2
78455;SHT31;67751;51.986;5.696;2023-05-29T07:29:17;14.2;54.4
78455;SHT31;67751;51.986;5.696;2023-05-29T07:31:49;14.3;55.1
78455;SHT31;67751;51.986;5.696;2023-05-29T07:34:19;14.4;54.6
78455;SHT31;67751;51.986;5.696;2023-05-29T07:37:00;14.4;55.1
78455;SHT31;67751;51.986;5.696;2023-05-29T07:39:32;14.5;55.5
78455;SHT31;67751;51.986;5.696;2023-05-29T07:42:03;14.5;55.8
78455;SHT31;67751;51.986;5.696;2023-05-29T07:44:36;14.6;55.3
78455;SHT31;67751;51.986;5.696;2023-05-29T07:47:05;14.7;54.5
78455;SHT31;67751;51.986;5.696;2023-05-29T07:49:35;14.7;55.2
78455;SHT31;67751;51.986;5.696;2023-05-29T07:52:05;14.8;55.2
78455;SHT31;67751;51.986;5.696;2023-05-29T07:54:35;14.9;54.5
78455;SHT31;67751;51.986;5.696;2023-05-29T07:57:05;14.9;54.4
78455;SHT31;67751;51.986;5.696;2023-05-29T07:59:37;15.0;54.0
78455;SHT31;67751;51.986;5.696;2023-05-29T08:02:07;15.0;54.2
78455;SHT31;67751;51.986;5.696;2023-05-29T08:04:37;15.1;54.2
78455;SHT31;67751;51.986;5.696;2023-05-29T08:07:06;15.1;53.8
78455;SHT31;67751;51.986;5.696;2023-05-29T08:09:36;15.2;54.5
78455;SHT31;67751;51.986;5.696;2023-05-29T08:12:06;15.2;54.3
78455;SHT31;67751;51.986;5.696;2023-05-29T08:14:36;15.3;54.2
78455;SHT31;67751;51.986;5.696;2023-05-29T08:17:05;15.3;53.6
78455;SHT31;67751;51.986;5.696;2023-05-29T08:19:35;15.4;52.4
78455;SHT31;67751;51.986;5.696;2023-05-29T08:22:05;15.4;52.2
78455;SHT31;67751;51.986;5.696;2023-05-29T08:24:36;15.5;52.4
78455;SHT31;67751;51.986;5.696;2023-05-29T08:27:06;15.5;52.0
78455;SHT31;67751;51.986;5.696;2023-05-29T08:29:36;15.6;51.7
78455;SHT31;67751;51.986;5.696;2023-05-29T08:32:06;15.6;51.8
78455;SHT31;67751;51.986;5.696;2023-05-29T08:34:36;15.7;51.3
78455;SHT31;67751;51.986;5.696;2023-05-29T08:37:06;15.7;51.2
78455;SHT31;67751;51.986;5.696;2023-05-29T08:39:35;15.8;52.6
78455;SHT31;67751;51.986;5.696;2023-05-29T08:42:10;15.8;52.4
78455;SHT31;67751;51.986;5.696;2023-05-29T08:44:46;15.9;51.4
78455;SHT31;67751;51.986;5.696;2023-05-29T08:47:17;15.9;51.2
78455;SHT31;67751;51.986;5.696;2023-05-29T08:49:52;16.0;52.3
78455;SHT31;67751;51.986;5.696;2023-05-29T08:52:24;16.0;53.2
78455;SHT31;67751;51.986;5.696;2023-05-29T08:54:54;16.1;51.5
78455;SHT31;67751;51.986;5.696;2023-05-29T08:57:27;16.1;51.2
78455;SHT31;67751;51.986;5.696;2023-05-29T08:59:58;16.2;51.2
78455;SHT31;67751;51.986;5.696;2023-05-29T09:02:28;16.2;52.1
78455;SHT31;67751;51.986;5.696;2023-05-29T09:04:58;16.3;51.7
78455;SHT31;67751;51.986;5.696;2023-05-29T09:07:27;16.3;50.9
78455;SHT31;67751;51.986;5.696;2023-05-29T09:10:01;16.3;51.6
78455;SHT31;67751;51.986;5.696;2023-05-29T09:12:31;16.4;51.0
78455;SHT31;67751;51.986;5.696;2023-05-29T09:15:01;16.4;51.6
78455;SHT31;67751;51.986;5.696;2023-05-29T09:17:33;16.5;51.7
78455;SHT31;67751;51.986;5.696;2023-05-29T09:20:03;16.5;50.7
78455;SHT31;67751;51.986;5.696;2023-05-29T09:22:42;16.6;52.0
78455;SHT31;67751;51.986;5.696;2023-05-29T09:25:16;16.6;51.6
78455;SHT31;67751;51.986;5.696;2023-05-29T09:27:50;16.7;51.2
78455;SHT31;67751;51.986;5.696;2023-05-29T09:30:33;16.7;50.8
78455;SHT31;67751;51.986;5.696;2023-05-29T09:33:04;16.8;50.6
78455;SHT31;67751;51.986;5.696;2023-05-29T09:35:39;16.9;50.7
78455;SHT31;67751;51.986;5.696;2023-05-29T09:38:10;16.9;49.5
78455;SHT31;67751;51.986;5.696;2023-05-29T09:40:40;17.0;48.8
78455;SHT31;67751;51.986;5.696;2023-05-29T09:43:14;17.0;49.6
78455;SHT31;67751;51.986;5.696;2023-05-29T09:45:46;17.1;51.7
78455;SHT31;67751;51.986;5.696;2023-05-29T09:48:18;17.1;51.1
78455;SHT31;67751;51.986;5.696;2023-05-29T09:50:49;17.2;48.8
78455;SHT31;67751;51.986;5.696;2023-05-29T09:53:23;17.2;48.2
78455;SHT31;67751;51.986;5.696;2023-05-29T09:55:54;17.3;47.8
78455;SHT31;67751;51.986;5.696;2023-05-29T09:58:26;17.3;48.0
78455;SHT31;67751;51.986;5.696;2023-05-29T10:00:56;17.4;48.8
78455;SHT31;67751;51.986;5.696;2023-05-29T10:03:27;17.4;48.9
78455;SHT31;67751;51.986;5.696;2023-05-29T10:06:04;17.4;46.8
78455;SHT31;67751;51.986;5.696;2023-05-29T10:08:37;17.5;48.0
78455;SHT31;67751;51.986;5.696;2023-05-29T10:11:11;17.5;48.5
78455;SHT31;67751;51.986;5.696;2023-05-29T10:13:45;17.5;47.2
78455;SHT31;67751;51.986;5.696;2023-05-29T10:16:22;17.6;47.0
78455;SHT31;67751;51.986;5.696;2023-05-29T10:18:54;17.6;45.6
78455;SHT31;67751;51.986;5.696;2023-05-29T10:21:27;17.6;47.2
78455;SHT31;67751;51.986;5.696;2023-05-29T10:23:58;17.7;45.5
78455;SHT31;67751;51.986;5.696;2023-05-29T10:26:29;17.7;45.6
78455;SHT31;67751;51.986;5.696;2023-05-29T10:29:11;17.8;45.1
78455;SHT31;67751;51.986;5.696;2023-05-29T10:31:51;17.8;44.8
78455;SHT31;67751;51.986;5.696;2023-05-29T10:34:30;17.9;43.0
78455;SHT31;67751;51.986;5.696;2023-05-29T10:37:08;17.9;44.8
78455;SHT31;67751;51.986;5.696;2023-05-29T10:39:41;17.9;45.1
78455;SHT31;67751;51.986;5.696;2023-05-29T10:42:42;17.9;45.5
78455;SHT31;67751;51.986;5.696;2023-05-29T10:45:52;18.0;45.0
78455;SHT31;67751;51.986;5.696;2023-05-29T10:48:41;18.0;45.2
78455;SHT31;67751;51.986;5.696;2023-05-29T10:51:26;18.0;43.4
78455;SHT31;67751;51.986;5.696;2023-05-29T10:54:00;18.0;44.6
78455;SHT31;67751;51.986;5.696;2023-05-29T10:56:30;18.1;43.8
78455;SHT31;67751;51.986;5.696;2023-05-29T10:59:00;18.1;43.4
78455;SHT31;67751;51.986;5.696;2023-05-29T11:01:31;18.1;44.5
78455;SHT31;67751;51.986;5.696;2023-05-29T11:04:29;18.1;42.6
78455;SHT31;67751;51.986;5.696;2023-05-29T11:07:00;18.2;42.4
78455;SHT31;67751;51.986;5.696;2023-05-29T11:09:34;18.2;44.5
78455;SHT31;67751;51.986;5.696;2023-05-29T11:12:24;18.2;44.7
78455;SHT31;67751;51.986;5.696;2023-05-29T11:15:05;18.2;43.4
78455;SHT31;67751;51.986;5.696;2023-05-29T11:17:45;18.2;42.7
78455;SHT31;67751;51.986;5.696;2023-05-29T11:20:35;18.2;43.1
78455;SHT31;67751;51.986;5.696;2023-05-29T11:23:06;18.3;43.6
78455;SHT31;67751;51.986;5.696;2023-05-29T11:25:37;18.3;43.8
78455;SHT31;67751;51.986;5.696;2023-05-29T11:28:10;18.3;43.5
78455;SHT31;67751;51.986;5.696;2023-05-29T11:30:45;18.3;42.5
78455;SHT31;67751;51.986;5.696;2023-05-29T11:33:20;18.4;40.7
78455;SHT31;67751;51.986;5.696;2023-05-29T11:35:56;18.4;41.2
78455;SHT31;67751;51.986;5.696;2023-05-29T11:38:28;18.4;40.6
78455;SHT31;67751;51.986;5.696;2023-05-29T11:41:00;18.4;41.4
78455;SHT31;67751;51.986;5.696;2023-05-29T11:43:33;18.4;41.7
78455;SHT31;67751;51.986;5.696;2023-05-29T11:46:04;18.5;40.8
78455;SHT31;67751;51.986;5.696;2023-05-29T11:48:46;18.5;40.0
78455;SHT31;67751;51.986;5.696;2023-05-29T11:51:16;18.5;41.3
78455;SHT31;67751;51.986;5.696;2023-05-29T11:53:47;18.5;42.9
78455;SHT31;67751;51.986;5.696;2023-05-29T11:56:20;18.5;42.4
78455;SHT31;67751;51.986;5.696;2023-05-29T11:58:49;18.5;43.5
78455;SHT31;67751;51.986;5.696;2023-05-29T12:01:23;18.5;42.4
78455;SHT31;67751;51.986;5.696;2023-05-29T12:03:54;18.6;40.7
78455;SHT31;67751;51.986;5.696;2023-05-29T12:06:33;18.6;42.0
78455;SHT31;67751;51.986;5.696;2023-05-29T12:09:05;18.6;42.6
78455;SHT31;67751;51.986;5.696;2023-05-29T12:11:36;18.6;40.7
78455;SHT31;67751;51.986;5.696;2023-05-29T12:14:06;18.6;43.2
78455;SHT31;67751;51.986;5.696;2023-05-29T12:16:35;18.6;42.0
78455;SHT31;67751;51.986;5.696;2023-05-29T12:19:05;18.6;41.3
78455;SHT31;67751;51.986;5.696;2023-05-29T12:21:37;18.6;43.2
78455;SHT31;67751;51.986;5.696;2023-05-29T12:24:10;18.6;40.8
78455;SHT31;67751;51.986;5.696;2023-05-29T12:26:41;18.7;41.8
78455;SHT31;67751;51.986;5.696;2023-05-29T12:29:11;18.7;42.0
78455;SHT31;67751;51.986;5.696;2023-05-29T12:31:41;18.7;42.8
78455;SHT31;67751;51.986;5.696;2023-05-29T12:34:11;18.7;42.3
78455;SHT31;67751;51.986;5.696;2023-05-29T12:36:43;18.7;41.2
78455;SHT31;67751;51.986;5.696;2023-05-29T12:39:12;18.7;42.9
78455;SHT31;67751;51.986;5.696;2023-05-29T12:41:42;18.8;44.3
78455;SHT31;67751;51.986;5.696;2023-05-29T12:44:13;18.8;43.0
78455;SHT31;67751;51.986;5.696;2023-05-29T12:46:43;18.8;39.9
78455;SHT31;67751;51.986;5.696;2023-05-29T12:49:14;18.8;42.2
78455;SHT31;67751;51.986;5.696;2023-05-29T12:51:45;18.8;41.1
78455;SHT31;67751;51.986;5.696;2023-05-29T12:54:16;18.8;40.8
78455;SHT31;67751;51.986;5.696;2023-05-29T12:56:46;18.8;41.1
78455;SHT31;67751;51.986;5.696;2023-05-29T12:59:18;18.8;39.8
78455;SHT31;67751;51.986;5.696;2023-05-29T13:01:47;18.8;38.0
78455;SHT31;67751;51.986;5.696;2023-05-29T13:04:17;18.9;38.4
78455;SHT31;67751;51.986;5.696;2023-05-29T13:06:46;18.9;41.2
78455;SHT31;67751;51.986;5.696;2023-05-29T13:09:16;18.9;41.0
78455;SHT31;67751;51.986;5.696;2023-05-29T13:11:48;18.9;39.8
78455;SHT31;67751;51.986;5.696;2023-05-29T13:14:17;18.9;40.5
78455;SHT31;67751;51.986;5.696;2023-05-29T13:16:48;19.0;41.0
78455;SHT31;67751;51.986;5.696;2023-05-29T13:19:17;19.0;39.2
78455;SHT31;67751;51.986;5.696;2023-05-29T13:21:47;19.0;39.7
78455;SHT31;67751;51.986;5.696;2023-05-29T13:24:17;19.1;39.1
78455;SHT31;67751;51.986;5.696;2023-05-29T13:26:47;19.1;39.0
78455;SHT31;67751;51.986;5.696;2023-05-29T13:29:17;19.1;38.4
78455;SHT31;67751;51.986;5.696;2023-05-29T13:31:48;19.2;39.6
78455;SHT31;67751;51.986;5.696;2023-05-29T13:34:17;19.2;37.5
78455;SHT31;67751;51.986;5.696;2023-05-29T13:36:47;19.2;37.8
78455;SHT31;67751;51.986;5.696;2023-05-29T13:39:17;19.2;37.2
78455;SHT31;67751;51.986;5.696;2023-05-29T13:41:46;19.3;37.5
78455;SHT31;67751;51.986;5.696;2023-05-29T13:44:16;19.3;35.8
78455;SHT31;67751;51.986;5.696;2023-05-29T13:46:46;19.3;38.5
78455;SHT31;67751;51.986;5.696;2023-05-29T13:49:16;19.4;38.6
78455;SHT31;67751;51.986;5.696;2023-05-29T13:51:45;19.4;36.8
78455;SHT31;67751;51.986;5.696;2023-05-29T13:54:16;19.4;37.1
78455;SHT31;67751;51.986;5.696;2023-05-29T13:56:48;19.4;38.4
78455;SHT31;67751;51.986;5.696;2023-05-29T13:59:18;19.4;37.3
78455;SHT31;67751;51.986;5.696;2023-05-29T14:01:47;19.4;37.7
78455;SHT31;67751;51.986;5.696;2023-05-29T14:04:17;19.4;39.4
78455;SHT31;67751;51.986;5.696;2023-05-29T14:06:46;19.4;38.8
78455;SHT31;67751;51.986;5.696;2023-05-29T14:09:18;19.4;38.4
78455;SHT31;67751;51.986;5.696;2023-05-29T14:11:54;19.4;36.3
78455;SHT31;67751;51.986;5.696;2023-05-29T14:14:25;19.4;36.7
78455;SHT31;67751;51.986;5.696;2023-05-29T14:16:55;19.4;37.3
78455;SHT31;67751;51.986;5.696;2023-05-29T14:19:24;19.4;37.4
78455;SHT31;67751;51.986;5.696;2023-05-29T14:21:54;19.4;39.5
78455;SHT31;67751;51.986;5.696;2023-05-29T14:24:24;19.4;37.8
78455;SHT31;67751;51.986;5.696;2023-05-29T14:26:53;19.3;38.0
78455;SHT31;67751;51.986;5.696;2023-05-29T14:29:25;19.3;38.8
78455;SHT31;67751;51.986;5.696;2023-05-29T14:31:54;19.3;38.9
78455;SHT31;67751;51.986;5.696;2023-05-29T14:34:24;19.3;39.2
78455;SHT31;67751;51.986;5.696;2023-05-29T14:36:54;19.3;39.2
78455;SHT31;67751;51.986;5.696;2023-05-29T14:39:23;19.3;39.2
78455;SHT31;67751;51.986;5.696;2023-05-29T14:41:53;19.3;40.0
78455;SHT31;67751;51.986;5.696;2023-05-29T14:44:22;19.3;40.0
78455;SHT31;67751;51.986;5.696;2023-05-29T14:46:52;19.3;40.7
78455;SHT31;67751;51.986;5.696;2023-05-29T14:49:22;19.3;40.1
78455;SHT31;67751;51.986;5.696;2023-05-29T14:51:51;19.4;39.6
78455;SHT31;67751;51.986;5.696;2023-05-29T14:54:21;19.4;40.8
78455;SHT31;67751;51.986;5.696;2023-05-29T14:56:53;19.4;39.4
78455;SHT31;67751;51.986;5.696;2023-05-29T14:59:23;19.4;39.3
78455;SHT31;67751;51.986;5.696;2023-05-29T15:01:52;19.4;39.2
78455;SHT31;67751;51.986;5.696;2023-05-29T15:04:24;19.4;39.2
78455;SHT31;67751;51.986;5.696;2023-05-29T15:06:54;19.4;36.8
78455;SHT31;67751;51.986;5.696;2023-05-29T15:09:26;19.4;37.5
78455;SHT31;67751;51.986;5.696;2023-05-29T15:11:56;19.4;36.4
78455;SHT31;67751;51.986;5.696;2023-05-29T15:14:27;19.4;36.9
78455;SHT31;67751;51.986;5.696;2023-05-29T15:16:57;19.4;36.4
78455;SHT31;67751;51.986;5.696;2023-05-29T15:19:27;19.4;36.2
78455;SHT31;67751;51.986;5.696;2023-05-29T15:21:57;19.4;37.5
78455;SHT31;67751;51.986;5.696;2023-05-29T15:24:27;19.4;37.5
78455;SHT31;67751;51.986;5.696;2023-05-29T15:26:57;19.4;37.5
78455;SHT31;67751;51.986;5.696;2023-05-29T15:29:31;19.4;35.4
78455;SHT31;67751;51.986;5.696;2023-05-29T15:32:02;19.4;36.0
78455;SHT31;67751;51.986;5.696;2023-05-29T15:34:32;19.3;35.1
78455;SHT31;67751;51.986;5.696;2023-05-29T15:37:03;19.3;35.3
78455;SHT31;67751;51.986;5.696;2023-05-29T15:39:33;19.3;36.5
78455;SHT31;67751;51.986;5.696;2023-05-29T15:42:05;19.3;34.7
78455;SHT31;67751;51.986;5.696;2023-05-29T15:44:38;19.3;36.0
78455;SHT31;67751;51.986;5.696;2023-05-29T15:47:08;19.3;37.5
78455;SHT31;67751;51.986;5.696;2023-05-29T15:49:39;19.3;38.1
78455;SHT31;67751;51.986;5.696;2023-05-29T15:52:09;19.3;38.8
78455;SHT31;67751;51.986;5.696;2023-05-29T15:54:39;19.3;37.8
78455;SHT31;67751;51.986;5.696;2023-05-29T15:57:10;19.3;37.5
78455;SHT31;67751;51.986;5.696;2023-05-29T15:59:40;19.4;38.5
78455;SHT31;67751;51.986;5.696;2023-05-29T16:02:09;19.4;38.6
78455;SHT31;67751;51.986;5.696;2023-05-29T16:04:39;19.4;36.4
78455;SHT31;67751;51.986;5.696;2023-05-29T16:07:09;19.4;38.1
78455;SHT31;67751;51.986;5.696;2023-05-29T16:09:40;19.4;37.7
78455;SHT31;67751;51.986;5.696;2023-05-29T16:12:11;19.4;37.0
78455;SHT31;67751;51.986;5.696;2023-05-29T16:14:41;19.4;38.0
78455;SHT31;67751;51.986;5.696;2023-05-29T16:17:11;19.4;36.3
78455;SHT31;67751;51.986;5.696;2023-05-29T16:19:40;19.4;37.0
78455;SHT31;67751;51.986;5.696;2023-05-29T16:22:10;19.4;37.3
78455;SHT31;67751;51.986;5.696;2023-05-29T16:24:39;19.4;38.3
78455;SHT31;67751;51.986;5.696;2023-05-29T16:27:09;19.4;37.9
78455;SHT31;67751;51.986;5.696;2023-05-29T16:29:40;19.4;38.2